Metar z połowy godziny Komunikat METAR ze strony awiacja.imgw.pl Metar G30 EPOK METAR EPOK 221430Z 25009KT 210V310 9999 SCT062CB BKN224 17/09 Q1012 RMK 167 059 5/3=